HBBA/BJM METAR and TAF weather

Enter ICAO airport designator
Station Type Date Time Source
HBBA METAR 2018/10/16 12:00 UTC NOAA

HBBA 161200Z 18022KT 9999 FEW030TCU FEW035CB 31/20 Q1011 NOSIG


Station Type Date Time Source
HBBA Decoded METAR 2018/10/16 12:00 UTC NOAA

Bujumbura, Burundi (HBBA) 03-19S 029-19E 783M
Oct 16, 2018 - 08:00 AM EDT / 2018.10.16 1200 UTC
Wind: from the S (180 degrees) at 25 MPH (22 KT):0
Visibility: greater than 7 mile(s):0
Sky conditions: mostly clear
Weather: Cumulonimbus clouds, towering cumulus clouds observed
Temperature: 87 F (31 C)
Dew Point: 68 F (20 C)
Relative Humidity: 52%
Pressure (altimeter): 29.85 in. Hg (1011 hPa)
ob: HBBA 161200Z 18022KT 9999 FEW030TCU FEW035CB 31/20 Q1011 NOSIG
cycle: 12

Station Type Date Time Source
HBBA TAF 2018/10/16 12:54 UTC NOAA

TAF TAF HBBA 161100Z 1612/1718 18010G25KT 9999 FEW025 FEW030CB SCT100 PROB30
TEMPO1614/1618 08015G25KT 6000 TSRA OR SHRA SCT025CB BKN100
BECMG1618/1620 00000KT CAVOK
BECMG1702/1704 36002KT 9999 FEW025 SCT100
BECMG1707/1709 18010G20KT 9999 FEW025 FEW030CB BKN100 PROB30
TEMPO1712/1718 08015G30KT 5000 TSRA OR SHRA SCT025CB BKN100


Example: see airport list